createdAt,value
2023-01-13T00:02:23.331Z,21.60
2023-01-13T00:04:50.091Z,20.40
2023-01-13T00:07:16.911Z,22.30
2023-01-13T00:09:43.697Z,20.10
2023-01-13T00:12:10.459Z,23.20
2023-01-13T00:14:37.161Z,20.20
2023-01-13T00:17:04.173Z,23.90
2023-01-13T00:19:30.851Z,21.00
2023-01-13T00:21:57.709Z,26.20
2023-01-13T00:24:24.551Z,21.00
2023-01-13T00:26:52.760Z,26.40
2023-01-13T00:29:19.595Z,19.40
2023-01-13T00:31:46.332Z,19.70
2023-01-13T00:34:13.081Z,26.90
2023-01-13T00:36:39.991Z,22.80
2023-01-13T00:39:06.830Z,21.50
2023-01-13T00:41:53.529Z,28.50
2023-01-13T00:44:20.399Z,24.90
2023-01-13T00:46:47.146Z,21.50
2023-01-13T00:49:14.268Z,23.60
2023-01-13T00:51:41.009Z,25.10
2023-01-13T00:54:08.011Z,25.60
2023-01-13T00:56:40.278Z,27.50
2023-01-13T00:59:10.530Z,26.50
2023-01-13T01:01:37.411Z,25.00
2023-01-13T01:04:04.247Z,26.20
2023-01-13T01:06:31.080Z,27.50
2023-01-13T01:08:58.052Z,26.00
2023-01-13T01:11:26.841Z,24.50
2023-01-13T01:13:54.828Z,26.80
2023-01-13T01:16:22.913Z,24.40
2023-01-13T01:18:50.493Z,28.80
2023-01-13T01:21:17.559Z,33.40
2023-01-13T01:23:44.412Z,23.60
2023-01-13T01:26:13.453Z,25.30
2023-01-13T01:28:40.275Z,27.80
2023-01-13T01:31:08.268Z,28.30
2023-01-13T01:33:35.019Z,28.50
2023-01-13T01:36:02.535Z,29.80
2023-01-13T01:38:29.310Z,25.40
2023-01-13T01:40:56.063Z,21.50
2023-01-13T01:43:42.559Z,32.80
2023-01-13T01:46:09.337Z,28.50
2023-01-13T01:48:38.544Z,28.90
2023-01-13T01:51:05.417Z,25.50
2023-01-13T01:53:32.099Z,30.30
2023-01-13T01:55:58.843Z,28.80
2023-01-13T01:58:31.191Z,30.40
2023-01-13T02:00:58.447Z,28.70
2023-01-13T02:03:25.329Z,27.40
2023-01-13T02:05:52.073Z,29.50
2023-01-13T02:08:18.914Z,30.70
2023-01-13T02:10:46.678Z,30.20
2023-01-13T02:13:13.521Z,28.50
2023-01-13T02:16:11.195Z,26.60
2023-01-13T02:18:45.211Z,29.30
2023-01-13T02:21:42.832Z,33.00
2023-01-13T02:24:37.661Z,29.80
2023-01-13T02:27:29.487Z,34.20
2023-01-13T02:30:34.357Z,29.80
2023-01-13T02:33:34.497Z,31.30
2023-01-13T02:36:27.374Z,26.80
2023-01-13T02:38:59.685Z,28.80
2023-01-13T02:41:47.748Z,30.00
2023-01-13T02:44:14.562Z,28.90
2023-01-13T02:46:44.589Z,27.10
2023-01-13T02:49:14.833Z,29.60
2023-01-13T02:51:41.544Z,28.50
2023-01-13T02:54:13.913Z,27.60
2023-01-13T02:56:43.209Z,28.40
2023-01-13T02:59:09.959Z,25.60
2023-01-13T03:01:36.972Z,28.40
2023-01-13T03:04:13.852Z,24.80
2023-01-13T03:07:04.013Z,26.20
2023-01-13T03:09:39.855Z,29.60
2023-01-13T03:12:12.569Z,27.00
2023-01-13T03:14:42.103Z,26.80
2023-01-13T03:17:22.601Z,27.80
2023-01-13T03:20:05.323Z,25.70
2023-01-13T03:22:33.416Z,32.60
2023-01-13T03:25:23.237Z,27.80
2023-01-13T03:28:08.355Z,30.50
2023-01-13T03:30:41.122Z,24.90
2023-01-13T03:33:30.416Z,24.50
2023-01-13T03:36:03.391Z,27.00
2023-01-13T03:38:44.801Z,24.20
2023-01-13T03:41:15.808Z,23.70
2023-01-13T03:44:06.420Z,26.30
2023-01-13T03:46:41.658Z,25.00
2023-01-13T03:49:08.322Z,28.30
2023-01-13T03:51:36.047Z,22.50
2023-01-13T03:54:05.223Z,25.40
2023-01-13T03:56:46.531Z,25.30
2023-01-13T03:59:22.286Z,28.40
2023-01-13T04:02:04.158Z,29.10
2023-01-13T04:04:36.970Z,29.30
2023-01-13T04:07:16.908Z,26.80
2023-01-13T04:09:51.159Z,24.80
2023-01-13T04:13:04.363Z,26.80
2023-01-13T04:15:36.543Z,25.40
2023-01-13T04:18:11.623Z,25.80
2023-01-13T04:20:39.823Z,28.70
2023-01-13T04:23:06.681Z,31.20
2023-01-13T04:25:34.243Z,27.90
2023-01-13T04:28:01.267Z,29.10
2023-01-13T04:30:28.002Z,29.50
2023-01-13T04:32:55.071Z,31.90
2023-01-13T04:35:21.737Z,32.10
2023-01-13T04:37:48.656Z,27.30
2023-01-13T04:40:15.419Z,28.70
2023-01-13T04:42:44.285Z,28.60
2023-01-13T04:45:11.506Z,28.60
2023-01-13T04:47:38.491Z,27.80
2023-01-13T04:50:05.351Z,29.00
2023-01-13T04:52:32.071Z,30.80
2023-01-13T04:54:58.796Z,27.30
2023-01-13T04:57:26.165Z,30.00
2023-01-13T04:59:52.878Z,26.80
2023-01-13T05:02:22.529Z,31.20
2023-01-13T05:04:49.345Z,26.20
2023-01-13T05:07:16.592Z,26.20
2023-01-13T05:09:43.252Z,26.40
2023-01-13T05:12:29.323Z,27.50
2023-01-13T05:15:14.808Z,24.30
2023-01-13T05:17:41.542Z,25.20
2023-01-13T05:20:09.072Z,26.40
2023-01-13T05:22:54.563Z,25.50
2023-01-13T05:25:28.416Z,21.80
2023-01-13T05:30:24.506Z,26.70
2023-01-13T05:32:51.268Z,22.80
2023-01-13T05:35:18.235Z,21.40
2023-01-13T05:37:45.160Z,23.20
2023-01-13T05:40:31.780Z,23.80
2023-01-13T05:43:20.423Z,20.40
2023-01-13T05:45:47.806Z,24.00
2023-01-13T05:48:14.573Z,23.70
2023-01-13T05:50:41.283Z,22.30
2023-01-13T05:53:07.978Z,22.60
2023-01-13T05:55:34.767Z,22.50
2023-01-13T05:58:01.475Z,22.90
2023-01-13T06:00:28.290Z,21.20
2023-01-13T06:02:55.028Z,23.00
2023-01-13T06:05:21.796Z,22.00
2023-01-13T06:07:48.409Z,21.40
2023-01-13T10:31:56.440Z,16.30
2023-01-13T10:34:23.976Z,18.20
2023-01-13T10:37:08.207Z,17.10
2023-01-13T10:42:14.005Z,16.00
2023-01-13T10:44:47.301Z,18.10
2023-01-13T10:47:28.199Z,15.00
2023-01-13T10:50:18.571Z,18.30
2023-01-13T10:53:16.270Z,18.60
2023-01-13T10:55:44.076Z,16.40
2023-01-13T10:58:21.016Z,16.90
2023-01-13T11:00:48.906Z,19.70
2023-01-13T11:03:21.784Z,16.40
2023-01-13T11:05:56.416Z,17.60
2023-01-13T11:08:31.428Z,15.50
2023-01-13T11:10:59.088Z,16.70
2023-01-13T11:13:57.919Z,17.00
2023-01-13T11:16:24.627Z,16.60
2023-01-13T11:19:02.638Z,16.20
2023-01-13T11:21:34.902Z,15.90
2023-01-13T11:24:06.685Z,16.30
2023-01-13T11:26:45.079Z,18.00
2023-01-13T11:29:17.984Z,17.80
2023-01-13T11:31:49.567Z,18.20
2023-01-13T11:34:31.113Z,17.30
2023-01-13T11:36:58.963Z,18.60
2023-01-13T11:39:44.373Z,18.00
2023-01-13T11:42:46.511Z,17.80
2023-01-13T11:45:41.070Z,18.00
2023-01-13T11:48:10.673Z,20.10
2023-01-13T11:50:56.319Z,18.80
2023-01-13T11:53:52.957Z,18.70
2023-01-13T11:56:41.396Z,17.70
2023-01-13T11:59:32.647Z,17.30
2023-01-13T12:02:22.867Z,18.00
2023-01-13T12:04:52.694Z,15.80
2023-01-13T12:07:53.765Z,16.50
2023-01-13T12:10:30.128Z,17.90
2023-01-13T12:13:02.353Z,19.00
2023-01-13T12:15:52.968Z,18.20
2023-01-13T12:18:29.068Z,19.40
2023-01-13T12:21:14.147Z,18.60
2023-01-13T12:23:46.926Z,18.00
2023-01-13T12:26:18.584Z,19.10
2023-01-13T12:28:52.916Z,19.20
2023-01-13T12:31:19.736Z,20.60
2023-01-13T12:34:05.519Z,18.80
2023-01-13T12:36:52.723Z,20.00
2023-01-13T12:39:30.346Z,19.50
2023-01-13T12:42:19.295Z,18.00
2023-01-13T12:45:06.126Z,20.20
2023-01-13T12:47:38.071Z,19.10
2023-01-13T12:50:26.508Z,19.90
2023-01-13T12:52:57.660Z,17.60
2023-01-13T12:55:33.909Z,19.30
2023-01-13T12:58:06.786Z,21.10
2023-01-13T13:00:41.713Z,18.10
2023-01-13T13:03:12.376Z,18.40
2023-01-13T13:05:48.887Z,19.10
2023-01-13T13:08:34.989Z,18.60
2023-01-13T13:11:33.826Z,20.60
2023-01-13T13:14:01.178Z,17.90
2023-01-13T13:16:29.550Z,19.10
2023-01-13T13:19:18.204Z,18.30
2023-01-13T13:22:17.969Z,18.20
2023-01-13T13:24:50.925Z,18.80
2023-01-13T13:27:18.386Z,21.00
2023-01-13T13:30:02.223Z,20.30
2023-01-13T13:32:52.509Z,18.50
2023-01-13T13:35:25.204Z,19.60
2023-01-13T13:38:31.548Z,21.70
2023-01-13T13:41:17.135Z,20.30
2023-01-13T13:44:03.874Z,22.10
2023-01-13T13:46:46.973Z,19.60
2023-01-13T13:49:17.219Z,20.60
2023-01-13T13:51:46.691Z,20.70
2023-01-13T13:54:16.429Z,18.70
2023-01-13T13:56:44.366Z,20.90
2023-01-13T18:06:59.340Z,24.40
2023-01-13T18:09:26.758Z,25.60
2023-01-13T18:11:53.657Z,26.40
2023-01-13T18:14:22.482Z,26.90
2023-01-13T18:16:49.424Z,26.10
2023-01-13T18:19:34.964Z,26.80
2023-01-13T18:22:20.110Z,26.60
2023-01-13T18:25:05.545Z,25.30
2023-01-13T18:27:34.492Z,26.20
2023-01-13T18:30:01.544Z,26.60
2023-01-13T18:32:32.921Z,27.30
2023-01-13T18:35:06.734Z,24.70
2023-01-13T18:37:36.160Z,26.70
2023-01-13T18:40:04.030Z,25.50
2023-01-13T18:42:49.678Z,25.90
2023-01-13T18:45:16.596Z,25.80
2023-01-13T18:47:43.436Z,23.10
2023-01-13T18:50:12.538Z,28.40
2023-01-13T18:52:39.397Z,29.30
2023-01-13T18:55:06.104Z,25.40
2023-01-13T18:57:33.419Z,28.10
2023-01-13T19:00:01.066Z,27.80
2023-01-13T19:02:30.040Z,27.90
2023-01-13T19:04:57.575Z,27.80
2023-01-13T19:07:28.362Z,27.90
2023-01-13T19:09:56.032Z,29.10
2023-01-13T19:12:26.284Z,28.30
2023-01-13T19:14:54.429Z,24.60
2023-01-13T19:17:21.794Z,26.40
2023-01-13T19:19:53.899Z,26.20
2023-01-13T19:22:24.118Z,27.10
2023-01-13T19:24:50.830Z,25.10
2023-01-13T19:27:18.139Z,23.70
2023-01-13T19:29:48.620Z,23.70
2023-01-13T19:32:20.499Z,23.70
2023-01-13T19:34:49.284Z,25.90
2023-01-13T19:37:16.004Z,24.80
2023-01-13T19:39:42.979Z,22.90
2023-01-13T19:42:30.091Z,22.60
2023-01-13T19:45:16.253Z,23.50
2023-01-13T19:47:45.384Z,24.00
2023-01-13T19:50:12.268Z,25.90
2023-01-13T19:52:38.971Z,24.10
2023-01-13T19:55:06.278Z,25.00
2023-01-13T19:57:32.959Z,24.00
2023-01-13T19:59:59.588Z,25.10
2023-01-13T20:02:31.435Z,22.50
2023-01-13T20:05:00.022Z,23.60
2023-01-13T20:07:28.101Z,23.10
2023-01-13T20:09:56.481Z,24.20
2023-01-13T20:12:24.246Z,23.30
2023-01-13T20:14:51.194Z,21.30
2023-01-13T20:17:19.255Z,23.90
2023-01-13T20:19:46.006Z,23.60
2023-01-13T20:22:12.738Z,23.50
2023-01-13T20:24:39.436Z,23.60
2023-01-13T20:27:06.459Z,22.70
2023-01-13T20:29:33.263Z,22.00
2023-01-13T20:32:00.117Z,22.30
2023-01-13T20:34:26.773Z,22.50
2023-01-13T20:36:53.417Z,22.50
2023-01-13T20:39:22.099Z,21.50
2023-01-13T20:42:07.695Z,23.70
2023-01-13T20:44:34.361Z,25.60
2023-01-13T20:47:01.116Z,22.40
2023-01-13T20:49:27.889Z,24.10
2023-01-13T20:51:54.914Z,23.10
2023-01-13T20:54:21.934Z,23.00
2023-01-13T20:56:48.907Z,24.40
2023-01-13T20:59:15.882Z,24.70
2023-01-13T21:01:42.697Z,24.00
2023-01-13T21:04:09.809Z,25.40
2023-01-13T21:06:36.566Z,23.70
2023-01-13T21:09:03.506Z,22.80
2023-01-13T21:11:49.038Z,25.30
2023-01-13T21:14:36.204Z,25.40
2023-01-13T21:17:02.860Z,22.70
2023-01-13T21:19:29.636Z,25.20
2023-01-13T21:21:56.680Z,25.60
2023-01-13T21:24:24.323Z,27.00
2023-01-13T21:26:58.967Z,27.20
2023-01-13T21:29:25.587Z,27.90
2023-01-13T21:31:54.067Z,26.50
2023-01-13T21:34:20.802Z,27.00
2023-01-13T21:36:47.436Z,27.90
2023-01-13T21:39:16.017Z,27.20
2023-01-13T21:42:01.480Z,27.60
2023-01-13T21:44:47.076Z,27.80
